Terminal Aerodrome Forecast
Issued by NWS

Home | Current Version | Previous Version | Text Only | Print | Product List | Glossary On
Versions: 1 2 3 4 5 6 7 8 9 10 11 12 13 14 15
000
FTUS43 KDMX 231127
TAFFOD
TAF
KFOD 231127Z 2312/2412 12013G17KT P6SM OVC110
     FM231400 15018G26KT P6SM -SHRA OVC060
     FM231800 15022G32KT P6SM BKN060 OVC110
     FM240300 13018G27KT P6SM -TSRA SCT025CB OVC060
     FM240700 12018G26KT 5SM -TSRA BKN009CB BKN025=

USA.gov is the U.S. government's official web portal to all federal, state and local government web resources and services.